sensor_id;sensor_type;location;lat;lon;timestamp;temperature;humidity
46181;DHT22;58963;50.438;30.594;2022-08-20T00:01:48;19.00;99.90
46181;DHT22;58963;50.438;30.594;2022-08-20T00:07:07;18.80;99.90
46181;DHT22;58963;50.438;30.594;2022-08-20T00:12:27;18.70;99.90
46181;DHT22;58963;50.438;30.594;2022-08-20T00:17:48;18.60;99.90
46181;DHT22;58963;50.438;30.594;2022-08-20T00:23:11;18.60;99.90
46181;DHT22;58963;50.438;30.594;2022-08-20T00:28:30;18.70;99.90
46181;DHT22;58963;50.438;30.594;2022-08-20T00:33:50;18.60;99.90
46181;DHT22;58963;50.438;30.594;2022-08-20T00:39:10;18.30;99.90
46181;DHT22;58963;50.438;30.594;2022-08-20T00:44:29;18.20;99.90
46181;DHT22;58963;50.438;30.594;2022-08-20T00:49:49;18.00;99.90
46181;DHT22;58963;50.438;30.594;2022-08-20T00:55:09;17.90;99.90
46181;DHT22;58963;50.438;30.594;2022-08-20T01:00:33;18.00;99.90
46181;DHT22;58963;50.438;30.594;2022-08-20T01:05:55;18.00;99.90
46181;DHT22;58963;50.438;30.594;2022-08-20T01:11:15;17.90;99.90
46181;DHT22;58963;50.438;30.594;2022-08-20T01:16:36;17.80;99.90
46181;DHT22;58963;50.438;30.594;2022-08-20T01:21:58;18.10;99.90
46181;DHT22;58963;50.438;30.594;2022-08-20T01:27:18;18.00;99.90
46181;DHT22;58963;50.438;30.594;2022-08-20T01:32:38;17.90;99.90
46181;DHT22;58963;50.438;30.594;2022-08-20T01:37:58;17.80;99.90
46181;DHT22;58963;50.438;30.594;2022-08-20T01:43:18;17.60;99.90
46181;DHT22;58963;50.438;30.594;2022-08-20T01:48:38;17.50;99.90
46181;DHT22;58963;50.438;30.594;2022-08-20T01:53:58;17.50;99.90
46181;DHT22;58963;50.438;30.594;2022-08-20T01:59:18;17.40;99.90
46181;DHT22;58963;50.438;30.594;2022-08-20T02:04:38;17.40;99.90
46181;DHT22;58963;50.438;30.594;2022-08-20T02:09:59;17.60;99.90
46181;DHT22;58963;50.438;30.594;2022-08-20T02:15:19;17.50;99.90
46181;DHT22;58963;50.438;30.594;2022-08-20T02:20:40;17.50;99.90
46181;DHT22;58963;50.438;30.594;2022-08-20T02:26:00;17.60;99.90
46181;DHT22;58963;50.438;30.594;2022-08-20T02:31:21;17.60;99.90
46181;DHT22;58963;50.438;30.594;2022-08-20T02:36:41;17.40;99.90
46181;DHT22;58963;50.438;30.594;2022-08-20T02:42:02;17.50;99.90
46181;DHT22;58963;50.438;30.594;2022-08-20T02:47:22;17.50;99.90
46181;DHT22;58963;50.438;30.594;2022-08-20T02:52:42;17.70;99.90
46181;DHT22;58963;50.438;30.594;2022-08-20T02:58:01;18.00;99.90
46181;DHT22;58963;50.438;30.594;2022-08-20T03:03:21;18.10;99.90
46181;DHT22;58963;50.438;30.594;2022-08-20T03:08:42;18.10;99.90
46181;DHT22;58963;50.438;30.594;2022-08-20T03:14:02;18.10;99.90
46181;DHT22;58963;50.438;30.594;2022-08-20T03:19:21;18.00;99.90
46181;DHT22;58963;50.438;30.594;2022-08-20T03:24:41;18.00;99.90
46181;DHT22;58963;50.438;30.594;2022-08-20T03:30:00;18.00;99.90
46181;DHT22;58963;50.438;30.594;2022-08-20T03:35:21;18.30;99.90
46181;DHT22;58963;50.438;30.594;2022-08-20T03:40:41;18.40;99.90
46181;DHT22;58963;50.438;30.594;2022-08-20T03:46:00;18.60;99.90
46181;DHT22;58963;50.438;30.594;2022-08-20T03:51:20;18.50;99.90
46181;DHT22;58963;50.438;30.594;2022-08-20T03:56:39;18.30;99.90
46181;DHT22;58963;50.438;30.594;2022-08-20T04:01:59;18.30;99.90
46181;DHT22;58963;50.438;30.594;2022-08-20T04:07:21;18.60;99.90
46181;DHT22;58963;50.438;30.594;2022-08-20T04:12:43;18.80;99.90
46181;DHT22;58963;50.438;30.594;2022-08-20T04:18:05;18.90;99.90
46181;DHT22;58963;50.438;30.594;2022-08-20T04:23:25;19.00;99.90
46181;DHT22;58963;50.438;30.594;2022-08-20T04:28:45;18.90;99.90
46181;DHT22;58963;50.438;30.594;2022-08-20T04:34:04;18.90;99.90
46181;DHT22;58963;50.438;30.594;2022-08-20T04:39:26;18.90;99.90
46181;DHT22;58963;50.438;30.594;2022-08-20T04:44:45;19.00;99.90
46181;DHT22;58963;50.438;30.594;2022-08-20T04:50:08;19.30;99.90
46181;DHT22;58963;50.438;30.594;2022-08-20T04:55:27;19.40;99.90
46181;DHT22;58963;50.438;30.594;2022-08-20T05:00:50;19.50;99.90
46181;DHT22;58963;50.438;30.594;2022-08-20T05:06:10;19.60;99.90
46181;DHT22;58963;50.438;30.594;2022-08-20T05:11:30;19.60;99.90
46181;DHT22;58963;50.438;30.594;2022-08-20T05:16:49;19.80;99.90
46181;DHT22;58963;50.438;30.594;2022-08-20T05:22:11;20.00;99.90
46181;DHT22;58963;50.438;30.594;2022-08-20T05:27:30;20.30;99.90
46181;DHT22;58963;50.438;30.594;2022-08-20T05:32:50;20.70;99.90
46181;DHT22;58963;50.438;30.594;2022-08-20T05:38:13;21.30;99.90
46181;DHT22;58963;50.438;30.594;2022-08-20T05:43:32;21.50;99.90
46181;DHT22;58963;50.438;30.594;2022-08-20T05:48:52;21.50;99.90
46181;DHT22;58963;50.438;30.594;2022-08-20T05:54:11;23.20;99.90
46181;DHT22;58963;50.438;30.594;2022-08-20T05:59:31;25.10;99.90
46181;DHT22;58963;50.438;30.594;2022-08-20T06:04:53;25.40;99.90
46181;DHT22;58963;50.438;30.594;2022-08-20T06:10:12;24.70;99.90
46181;DHT22;58963;50.438;30.594;2022-08-20T06:15:32;23.40;99.90
46181;DHT22;58963;50.438;30.594;2022-08-20T06:20:52;23.70;99.90
46181;DHT22;58963;50.438;30.594;2022-08-20T06:26:12;27.00;96.90
46181;DHT22;58963;50.438;30.594;2022-08-20T06:31:31;26.50;95.80
46181;DHT22;58963;50.438;30.594;2022-08-20T06:36:54;27.10;99.90
46181;DHT22;58963;50.438;30.594;2022-08-20T06:42:13;25.80;96.40
46181;DHT22;58963;50.438;30.594;2022-08-20T06:47:33;25.20;98.40
46181;DHT22;58963;50.438;30.594;2022-08-20T06:52:52;25.10;99.90
46181;DHT22;58963;50.438;30.594;2022-08-20T06:58:12;25.10;99.90
46181;DHT22;58963;50.438;30.594;2022-08-20T07:03:32;24.50;99.90
46181;DHT22;58963;50.438;30.594;2022-08-20T07:08:51;24.00;99.90
46181;DHT22;58963;50.438;30.594;2022-08-20T07:14:11;23.30;99.90
46181;DHT22;58963;50.438;30.594;2022-08-20T07:19:30;22.90;99.90
46181;DHT22;58963;50.438;30.594;2022-08-20T07:24:50;22.70;99.90
46181;DHT22;58963;50.438;30.594;2022-08-20T07:30:13;22.80;99.90
46181;DHT22;58963;50.438;30.594;2022-08-20T07:35:52;22.90;99.90
46181;DHT22;58963;50.438;30.594;2022-08-20T07:41:12;23.30;99.90
46181;DHT22;58963;50.438;30.594;2022-08-20T07:46:33;24.20;99.90
46181;DHT22;58963;50.438;30.594;2022-08-20T07:51:52;24.90;99.90
46181;DHT22;58963;50.438;30.594;2022-08-20T07:57:12;26.00;99.60
46181;DHT22;58963;50.438;30.594;2022-08-20T08:02:31;27.20;92.50
46181;DHT22;58963;50.438;30.594;2022-08-20T08:07:50;26.10;93.60
46181;DHT22;58963;50.438;30.594;2022-08-20T08:13:14;26.30;95.20
46181;DHT22;58963;50.438;30.594;2022-08-20T08:18:42;26.30;94.30
46181;DHT22;58963;50.438;30.594;2022-08-20T08:24:03;26.90;99.90
46181;DHT22;58963;50.438;30.594;2022-08-20T08:29:22;27.40;99.90
46181;DHT22;58963;50.438;30.594;2022-08-20T08:34:41;27.50;95.90
46181;DHT22;58963;50.438;30.594;2022-08-20T08:40:06;28.00;91.10
46181;DHT22;58963;50.438;30.594;2022-08-20T08:45:33;28.80;92.60
46181;DHT22;58963;50.438;30.594;2022-08-20T08:50:54;30.30;91.80
46181;DHT22;58963;50.438;30.594;2022-08-20T08:56:17;28.90;80.60
46181;DHT22;58963;50.438;30.594;2022-08-20T09:01:46;28.60;93.60
46181;DHT22;58963;50.438;30.594;2022-08-20T09:07:08;29.10;85.20
46181;DHT22;58963;50.438;30.594;2022-08-20T09:12:29;30.00;79.90
46181;DHT22;58963;50.438;30.594;2022-08-20T09:17:49;30.30;75.80
46181;DHT22;58963;50.438;30.594;2022-08-20T09:23:08;30.00;78.30
46181;DHT22;58963;50.438;30.594;2022-08-20T09:28:27;29.50;79.40
46181;DHT22;58963;50.438;30.594;2022-08-20T09:33:47;29.50;89.00
46181;DHT22;58963;50.438;30.594;2022-08-20T09:39:06;29.30;77.70
46181;DHT22;58963;50.438;30.594;2022-08-20T09:44:25;29.30;83.10
46181;DHT22;58963;50.438;30.594;2022-08-20T09:49:44;28.80;80.50
46181;DHT22;58963;50.438;30.594;2022-08-20T09:55:20;28.60;85.60
46181;DHT22;58963;50.438;30.594;2022-08-20T10:00:40;28.90;91.90
46181;DHT22;58963;50.438;30.594;2022-08-20T10:06:00;28.60;81.40
46181;DHT22;58963;50.438;30.594;2022-08-20T10:11:19;27.30;89.80
46181;DHT22;58963;50.438;30.594;2022-08-20T10:16:38;26.40;92.20
46181;DHT22;58963;50.438;30.594;2022-08-20T10:21:58;25.60;94.40
46181;DHT22;58963;50.438;30.594;2022-08-20T10:27:18;25.10;96.80
46181;DHT22;58963;50.438;30.594;2022-08-20T10:32:37;24.80;98.40
46181;DHT22;58963;50.438;30.594;2022-08-20T10:37:56;24.30;98.60
46181;DHT22;58963;50.438;30.594;2022-08-20T10:43:15;24.40;98.80
46181;DHT22;58963;50.438;30.594;2022-08-20T10:48:35;24.50;98.20
46181;DHT22;58963;50.438;30.594;2022-08-20T10:53:54;24.70;97.80
46181;DHT22;58963;50.438;30.594;2022-08-20T10:59:13;25.40;95.50
46181;DHT22;58963;50.438;30.594;2022-08-20T11:04:32;28.20;90.20
46181;DHT22;58963;50.438;30.594;2022-08-20T11:09:52;29.50;79.70
46181;DHT22;58963;50.438;30.594;2022-08-20T11:15:13;28.70;83.90
46181;DHT22;58963;50.438;30.594;2022-08-20T11:20:33;28.40;87.80
46181;DHT22;58963;50.438;30.594;2022-08-20T11:25:54;28.60;86.50
46181;DHT22;58963;50.438;30.594;2022-08-20T11:31:13;28.00;88.10
46181;DHT22;58963;50.438;30.594;2022-08-20T11:36:32;27.60;89.30
46181;DHT22;58963;50.438;30.594;2022-08-20T11:41:52;27.60;90.10
46181;DHT22;58963;50.438;30.594;2022-08-20T11:47:24;27.80;90.00
46181;DHT22;58963;50.438;30.594;2022-08-20T11:52:44;27.50;90.30
46181;DHT22;58963;50.438;30.594;2022-08-20T11:58:03;27.20;91.50
46181;DHT22;58963;50.438;30.594;2022-08-20T12:03:22;27.10;91.70
46181;DHT22;58963;50.438;30.594;2022-08-20T12:08:41;27.10;92.20
46181;DHT22;58963;50.438;30.594;2022-08-20T12:14:00;26.90;93.40
46181;DHT22;58963;50.438;30.594;2022-08-20T12:19:20;26.80;93.80
46181;DHT22;58963;50.438;30.594;2022-08-20T12:24:39;26.40;94.30
46181;DHT22;58963;50.438;30.594;2022-08-20T12:30:00;25.90;96.90
46181;DHT22;58963;50.438;30.594;2022-08-20T12:35:20;25.80;98.00
46181;DHT22;58963;50.438;30.594;2022-08-20T12:40:39;25.70;98.20
46181;DHT22;58963;50.438;30.594;2022-08-20T12:45:58;25.50;98.10
46181;DHT22;58963;50.438;30.594;2022-08-20T12:51:17;25.30;98.60
46181;DHT22;58963;50.438;30.594;2022-08-20T12:56:37;25.40;99.20
46181;DHT22;58963;50.438;30.594;2022-08-20T13:01:57;25.60;98.90
46181;DHT22;58963;50.438;30.594;2022-08-20T13:07:16;25.60;99.00
46181;DHT22;58963;50.438;30.594;2022-08-20T13:12:36;25.50;99.90
46181;DHT22;58963;50.438;30.594;2022-08-20T13:18:00;25.50;99.90
46181;DHT22;58963;50.438;30.594;2022-08-20T13:23:20;25.50;99.90
46181;DHT22;58963;50.438;30.594;2022-08-20T13:28:39;25.80;99.90
46181;DHT22;58963;50.438;30.594;2022-08-20T13:33:59;25.70;99.90
46181;DHT22;58963;50.438;30.594;2022-08-20T13:39:18;25.50;99.90
46181;DHT22;58963;50.438;30.594;2022-08-20T13:44:37;25.60;99.90
46181;DHT22;58963;50.438;30.594;2022-08-20T13:50:17;25.60;99.90
46181;DHT22;58963;50.438;30.594;2022-08-20T13:55:37;25.60;99.90
46181;DHT22;58963;50.438;30.594;2022-08-20T14:01:02;26.00;99.90
46181;DHT22;58963;50.438;30.594;2022-08-20T14:06:22;26.10;99.80
46181;DHT22;58963;50.438;30.594;2022-08-20T14:11:41;26.40;99.90
46181;DHT22;58963;50.438;30.594;2022-08-20T14:22:35;26.80;98.50
46181;DHT22;58963;50.438;30.594;2022-08-20T14:27:55;26.80;99.90
46181;DHT22;58963;50.438;30.594;2022-08-20T14:33:15;26.60;99.90
46181;DHT22;58963;50.438;30.594;2022-08-20T14:38:34;26.00;99.90
46181;DHT22;58963;50.438;30.594;2022-08-20T14:43:53;25.40;99.90
46181;DHT22;58963;50.438;30.594;2022-08-20T14:49:13;25.20;99.90
46181;DHT22;58963;50.438;30.594;2022-08-20T14:54:33;25.00;99.90
46181;DHT22;58963;50.438;30.594;2022-08-20T14:59:52;24.40;99.90
46181;DHT22;58963;50.438;30.594;2022-08-20T15:05:12;24.30;99.90
46181;DHT22;58963;50.438;30.594;2022-08-20T15:10:32;24.20;99.90
46181;DHT22;58963;50.438;30.594;2022-08-20T15:15:52;24.20;99.90
46181;DHT22;58963;50.438;30.594;2022-08-20T15:21:12;23.80;99.90
46181;DHT22;58963;50.438;30.594;2022-08-20T15:26:32;23.50;99.90
46181;DHT22;58963;50.438;30.594;2022-08-20T15:31:52;23.40;99.90
46181;DHT22;58963;50.438;30.594;2022-08-20T15:37:14;23.30;99.90
46181;DHT22;58963;50.438;30.594;2022-08-20T15:42:33;23.50;99.90
46181;DHT22;58963;50.438;30.594;2022-08-20T15:48:06;23.50;99.90
46181;DHT22;58963;50.438;30.594;2022-08-20T15:53:34;23.50;99.90
46181;DHT22;58963;50.438;30.594;2022-08-20T16:05:20;23.40;99.90
46181;DHT22;58963;50.438;30.594;2022-08-20T16:16:37;23.30;99.90
46181;DHT22;58963;50.438;30.594;2022-08-20T16:21:59;23.30;99.90
46181;DHT22;58963;50.438;30.594;2022-08-20T16:33:09;23.50;99.90
46181;DHT22;58963;50.438;30.594;2022-08-20T16:38:49;23.20;99.90
46181;DHT22;58963;50.438;30.594;2022-08-20T16:50:10;23.00;99.90
46181;DHT22;58963;50.438;30.594;2022-08-20T16:55:30;22.90;99.90
46181;DHT22;58963;50.438;30.594;2022-08-20T17:01:07;22.70;99.90
46181;DHT22;58963;50.438;30.594;2022-08-20T17:06:32;22.60;99.90
46181;DHT22;58963;50.438;30.594;2022-08-20T17:12:32;22.60;99.90
46181;DHT22;58963;50.438;30.594;2022-08-20T17:17:50;22.60;99.90
46181;DHT22;58963;50.438;30.594;2022-08-20T17:23:12;22.60;99.90
46181;DHT22;58963;50.438;30.594;2022-08-20T17:28:35;22.80;99.90
46181;DHT22;58963;50.438;30.594;2022-08-20T17:33:55;23.20;99.90
46181;DHT22;58963;50.438;30.594;2022-08-20T17:39:17;22.90;99.90
46181;DHT22;58963;50.438;30.594;2022-08-20T17:44:41;22.70;99.90
46181;DHT22;58963;50.438;30.594;2022-08-20T17:50:12;22.70;99.90
46181;DHT22;58963;50.438;30.594;2022-08-20T17:55:34;22.50;99.90
46181;DHT22;58963;50.438;30.594;2022-08-20T18:00:54;22.60;99.90
46181;DHT22;58963;50.438;30.594;2022-08-20T18:12:33;22.60;99.90
46181;DHT22;58963;50.438;30.594;2022-08-20T18:23:39;22.60;99.90
46181;DHT22;58963;50.438;30.594;2022-08-20T18:29:23;22.80;99.90
46181;DHT22;58963;50.438;30.594;2022-08-20T18:34:51;22.70;99.90
46181;DHT22;58963;50.438;30.594;2022-08-20T18:40:27;22.50;99.90
46181;DHT22;58963;50.438;30.594;2022-08-20T18:45:47;22.40;99.90
46181;DHT22;58963;50.438;30.594;2022-08-20T18:51:08;22.30;99.90
46181;DHT22;58963;50.438;30.594;2022-08-20T18:56:34;22.30;99.90
46181;DHT22;58963;50.438;30.594;2022-08-20T19:01:54;22.20;99.90
46181;DHT22;58963;50.438;30.594;2022-08-20T19:07:14;22.10;99.90
46181;DHT22;58963;50.438;30.594;2022-08-20T19:12:55;21.90;99.90
46181;DHT22;58963;50.438;30.594;2022-08-20T19:18:39;22.00;99.90
46181;DHT22;58963;50.438;30.594;2022-08-20T19:24:04;21.90;99.90
46181;DHT22;58963;50.438;30.594;2022-08-20T19:29:34;21.80;99.90
46181;DHT22;58963;50.438;30.594;2022-08-20T19:34:57;21.70;99.90
46181;DHT22;58963;50.438;30.594;2022-08-20T19:40:21;21.60;99.90
46181;DHT22;58963;50.438;30.594;2022-08-20T19:45:48;21.70;99.90
46181;DHT22;58963;50.438;30.594;2022-08-20T19:51:19;21.70;99.90
46181;DHT22;58963;50.438;30.594;2022-08-20T19:56:53;21.80;99.90
46181;DHT22;58963;50.438;30.594;2022-08-20T20:02:18;21.80;99.90
46181;DHT22;58963;50.438;30.594;2022-08-20T20:07:50;21.70;99.90
46181;DHT22;58963;50.438;30.594;2022-08-20T20:13:13;21.70;99.90
46181;DHT22;58963;50.438;30.594;2022-08-20T20:18:37;21.80;99.90
46181;DHT22;58963;50.438;30.594;2022-08-20T20:23:59;21.70;99.90
46181;DHT22;58963;50.438;30.594;2022-08-20T20:29:34;21.50;99.90
46181;DHT22;58963;50.438;30.594;2022-08-20T20:34:57;21.90;99.90
46181;DHT22;58963;50.438;30.594;2022-08-20T20:40:33;21.50;99.90
46181;DHT22;58963;50.438;30.594;2022-08-20T20:46:13;21.60;99.90
46181;DHT22;58963;50.438;30.594;2022-08-20T20:51:40;21.30;99.90
46181;DHT22;58963;50.438;30.594;2022-08-20T21:02:36;21.20;99.90
46181;DHT22;58963;50.438;30.594;2022-08-20T21:07:58;21.30;99.90
46181;DHT22;58963;50.438;30.594;2022-08-20T21:13:18;21.60;99.90
46181;DHT22;58963;50.438;30.594;2022-08-20T21:18:38;21.20;99.90
46181;DHT22;58963;50.438;30.594;2022-08-20T21:24:00;20.80;99.90
46181;DHT22;58963;50.438;30.594;2022-08-20T21:29:24;20.50;99.90
46181;DHT22;58963;50.438;30.594;2022-08-20T21:34:44;20.30;99.90
46181;DHT22;58963;50.438;30.594;2022-08-20T21:40:05;20.20;99.90
46181;DHT22;58963;50.438;30.594;2022-08-20T21:45:26;20.20;99.90
46181;DHT22;58963;50.438;30.594;2022-08-20T21:50:45;20.10;99.90
46181;DHT22;58963;50.438;30.594;2022-08-20T21:56:04;20.00;99.90
46181;DHT22;58963;50.438;30.594;2022-08-20T22:01:24;19.90;99.90
46181;DHT22;58963;50.438;30.594;2022-08-20T22:06:43;19.90;99.90
46181;DHT22;58963;50.438;30.594;2022-08-20T22:12:04;19.90;99.90
46181;DHT22;58963;50.438;30.594;2022-08-20T22:17:24;19.90;99.90
46181;DHT22;58963;50.438;30.594;2022-08-20T22:22:43;19.80;99.90
46181;DHT22;58963;50.438;30.594;2022-08-20T22:28:02;19.70;99.90
46181;DHT22;58963;50.438;30.594;2022-08-20T22:33:23;19.60;99.90
46181;DHT22;58963;50.438;30.594;2022-08-20T22:38:43;19.60;99.90
46181;DHT22;58963;50.438;30.594;2022-08-20T22:44:03;19.60;99.90
46181;DHT22;58963;50.438;30.594;2022-08-20T22:49:26;19.70;99.90
46181;DHT22;58963;50.438;30.594;2022-08-20T22:54:46;19.60;99.90
46181;DHT22;58963;50.438;30.594;2022-08-20T23:00:10;19.50;99.90
46181;DHT22;58963;50.438;30.594;2022-08-20T23:05:32;19.50;99.90
46181;DHT22;58963;50.438;30.594;2022-08-20T23:10:52;19.50;99.90
46181;DHT22;58963;50.438;30.594;2022-08-20T23:16:11;19.40;99.90
46181;DHT22;58963;50.438;30.594;2022-08-20T23:21:31;19.30;99.90
46181;DHT22;58963;50.438;30.594;2022-08-20T23:26:50;19.30;99.90
46181;DHT22;58963;50.438;30.594;2022-08-20T23:32:10;19.30;99.90
46181;DHT22;58963;50.438;30.594;2022-08-20T23:37:31;19.30;99.90
46181;DHT22;58963;50.438;30.594;2022-08-20T23:42:52;19.30;99.90
46181;DHT22;58963;50.438;30.594;2022-08-20T23:48:11;19.20;99.90
46181;DHT22;58963;50.438;30.594;2022-08-20T23:53:31;19.10;99.90
46181;DHT22;58963;50.438;30.594;2022-08-20T23:58:50;19.10;99.90
